Time;durP1;ratioP1;P1;durP2;ratioP2;P2;SDS_P1;SDS_P2;PMS_P1;PMS_P2;Temp;Humidity;BMP_temperature;BMP_pressure;BME280_temperature;BME280_humidity;BME280_pressure;Samples;Min_cycle;Max_cycle;Signal;HPM_P1;HPM_P2
2021/07/31 00:01:19;;;;;;;12.25;5.38;;;16.10;99.90;;;;;;4195380;28;20449;-79
2021/07/31 00:03:19;;;;;;;10.40;4.80;;;16.20;99.90;;;;;;4211852;28;20063;-79
2021/07/31 00:05:20;;;;;;;10.60;5.35;;;16.20;99.90;;;;;;4212166;28;20459;-78
2021/07/31 00:07:21;;;;;;;8.00;5.30;;;16.10;99.90;;;;;;4209661;28;20052;-78
2021/07/31 00:09:23;;;;;;;18.13;5.95;;;16.40;99.90;;;;;;4193210;28;20036;-77
2021/07/31 00:11:23;;;;;;;13.32;5.57;;;16.50;99.90;;;;;;4207280;28;20064;-77
2021/07/31 00:13:26;;;;;;;14.65;6.18;;;16.40;99.90;;;;;;4214248;28;20592;-78
2021/07/31 00:15:26;;;;;;;9.53;5.10;;;16.50;99.90;;;;;;4191042;28;20523;-79
2021/07/31 00:17:27;;;;;;;13.73;6.07;;;16.40;99.90;;;;;;4192259;28;20278;-79
2021/07/31 00:19:27;;;;;;;11.60;5.50;;;16.70;99.90;;;;;;4210975;28;20085;-77
2021/07/31 00:21:28;;;;;;;15.07;5.40;;;16.70;99.90;;;;;;4213012;28;20085;-77
2021/07/31 00:23:29;;;;;;;10.77;4.95;;;16.70;99.90;;;;;;4194570;28;20037;-78
2021/07/31 00:25:30;;;;;;;16.10;5.03;;;16.70;99.90;;;;;;4212366;28;20032;-78
2021/07/31 00:27:30;;;;;;;11.95;5.78;;;16.60;99.90;;;;;;4193187;28;20055;-78
2021/07/31 00:29:31;;;;;;;11.57;5.05;;;16.70;99.90;;;;;;4208503;28;20127;-78
2021/07/31 00:31:32;;;;;;;14.35;5.43;;;16.60;99.90;;;;;;4208884;28;20028;-79
2021/07/31 00:33:33;;;;;;;16.30;6.50;;;16.60;99.90;;;;;;4190868;28;20036;-78
2021/07/31 00:35:34;;;;;;;14.90;6.93;;;16.60;99.90;;;;;;4193033;28;20110;-76
2021/07/31 00:37:34;;;;;;;15.93;6.63;;;16.60;99.90;;;;;;4209856;28;20484;-79
2021/07/31 00:39:38;;;;;;;11.45;5.82;;;16.50;99.90;;;;;;4211729;28;20044;-79
2021/07/31 00:41:39;;;;;;;11.70;5.88;;;16.40;99.90;;;;;;4211028;28;20028;-80
2021/07/31 00:43:40;;;;;;;14.57;6.88;;;16.50;99.90;;;;;;4193543;28;20049;-80
2021/07/31 00:45:41;;;;;;;12.30;5.97;;;16.40;99.90;;;;;;4193032;28;20028;-78
2021/07/31 00:47:42;;;;;;;13.82;7.10;;;16.30;99.90;;;;;;4193860;28;20095;-78
2021/07/31 00:49:44;;;;;;;11.85;6.97;;;16.10;99.90;;;;;;4186904;28;20368;-79
2021/07/31 00:51:45;;;;;;;16.92;7.88;;;16.00;99.90;;;;;;4213860;28;20111;-79
2021/07/31 00:53:47;;;;;;;16.08;8.48;;;15.60;99.90;;;;;;4188888;28;20037;-80
2021/07/31 00:55:49;;;;;;;18.00;7.88;;;15.60;99.90;;;;;;4194816;28;20041;-78
2021/07/31 00:57:50;;;;;;;15.45;8.57;;;15.80;99.90;;;;;;4194572;28;20040;-78
2021/07/31 00:59:51;;;;;;;10.80;7.53;;;14.90;99.90;;;;;;4212983;28;20032;-79
2021/07/31 01:01:52;;;;;;;18.02;8.77;;;15.70;99.90;;;;;;4210490;28;20119;-79
2021/07/31 01:03:52;;;;;;;17.13;9.18;;;15.60;99.90;;;;;;4213523;28;20034;-79
2021/07/31 01:05:53;;;;;;;16.70;9.00;;;15.60;99.90;;;;;;4192697;28;20127;-81
2021/07/31 01:07:54;;;;;;;14.20;8.40;;;15.40;99.90;;;;;;4194906;28;20036;-77
2021/07/31 01:09:55;;;;;;;13.77;8.55;;;15.50;99.90;;;;;;4192800;28;20173;-78
2021/07/31 01:11:55;;;;;;;14.32;8.55;;;14.10;99.90;;;;;;4213408;28;20020;-80
2021/07/31 01:13:57;;;;;;;14.05;8.57;;;15.40;99.90;;;;;;4192722;28;20509;-80
2021/07/31 01:16:04;;;;;;;18.05;10.13;;;15.40;99.90;;;;;;4195502;28;20443;-80
2021/07/31 01:18:04;;;;;;;20.58;9.57;;;15.60;99.90;;;;;;4208840;28;20115;-80
2021/07/31 01:20:05;;;;;;;13.40;7.15;;;15.60;99.90;;;;;;4210853;28;20037;-77
2021/07/31 01:22:06;;;;;;;16.55;8.93;;;15.70;99.90;;;;;;4191878;28;20059;-80
2021/07/31 01:24:08;;;;;;;15.88;8.30;;;15.70;99.90;;;;;;4196070;28;20549;-79
2021/07/31 01:26:08;;;;;;;15.07;8.55;;;15.80;99.90;;;;;;4192857;28;20044;-79
2021/07/31 01:28:09;;;;;;;20.30;9.27;;;15.90;99.90;;;;;;4193760;28;20039;-79
2021/07/31 01:30:10;;;;;;;15.82;9.38;;;15.80;99.90;;;;;;4189242;28;20372;-80
2021/07/31 01:32:11;;;;;;;15.65;9.70;;;15.60;99.90;;;;;;4189800;28;20043;-78
2021/07/31 01:34:12;;;;;;;21.60;10.98;;;15.60;99.90;;;;;;4190796;28;20033;-79
2021/07/31 01:36:12;;;;;;;16.25;9.05;;;15.60;99.90;;;;;;4193564;28;20036;-78
2021/07/31 01:38:13;;;;;;;16.25;9.68;;;15.50;99.90;;;;;;4194407;28;20059;-78
2021/07/31 01:40:14;;;;;;;16.33;9.27;;;15.60;99.90;;;;;;4193236;28;20139;-78
2021/07/31 01:42:15;;;;;;;21.77;10.98;;;15.70;99.90;;;;;;4195276;28;20383;-79
2021/07/31 01:44:16;;;;;;;18.33;11.30;;;15.60;99.90;;;;;;4195369;28;20033;-79
2021/07/31 01:46:18;;;;;;;17.17;11.10;;;15.50;99.90;;;;;;4193930;28;20047;-79
2021/07/31 01:48:18;;;;;;;20.63;11.38;;;15.40;99.90;;;;;;4177303;28;20400;-78
2021/07/31 01:50:19;;;;;;;19.70;11.05;;;15.40;99.90;;;;;;4193945;28;20032;-76
2021/07/31 01:52:20;;;;;;;20.55;11.30;;;15.50;99.90;;;;;;4190557;28;20385;-79
2021/07/31 01:54:21;;;;;;;21.60;11.48;;;15.40;99.90;;;;;;4194555;28;20137;-79
2021/07/31 01:56:21;;;;;;;19.73;11.18;;;15.20;99.90;;;;;;4192812;28;20029;-78
2021/07/31 01:58:22;;;;;;;25.15;13.68;;;15.20;99.90;;;;;;4194208;28;20480;-78
2021/07/31 02:00:22;;;;;;;15.35;10.80;;;15.20;99.90;;;;;;4191413;28;20040;-77
2021/07/31 02:02:23;;;;;;;21.40;12.85;;;15.20;99.90;;;;;;4193011;28;20376;-78
2021/07/31 02:04:24;;;;;;;13.63;9.48;;;15.10;99.90;;;;;;4190517;28;20040;-77
2021/07/31 02:06:25;;;;;;;18.95;11.40;;;15.10;99.90;;;;;;4192867;28;20029;-79
2021/07/31 02:08:25;;;;;;;17.83;11.63;;;15.30;99.90;;;;;;4190675;28;20519;-79
2021/07/31 02:10:26;;;;;;;21.52;11.55;;;15.20;99.90;;;;;;4192981;28;20041;-78
2021/07/31 02:12:26;;;;;;;13.05;9.30;;;15.20;99.90;;;;;;4191241;28;20388;-78
2021/07/31 02:14:27;;;;;;;16.38;10.07;;;15.30;99.90;;;;;;4194241;28;20479;-79
2021/07/31 02:16:28;;;;;;;19.92;10.40;;;15.30;99.90;;;;;;4190300;28;20098;-78
2021/07/31 02:18:28;;;;;;;13.80;10.40;;;15.30;99.90;;;;;;4196085;28;20037;-79
2021/07/31 02:20:29;;;;;;;26.95;11.93;;;15.40;99.90;;;;;;4193810;28;20035;-78
2021/07/31 02:22:29;;;;;;;21.15;12.70;;;15.40;99.90;;;;;;4201023;28;20044;-78
2021/07/31 02:24:30;;;;;;;20.92;10.57;;;15.30;99.90;;;;;;4192848;28;20052;-78
2021/07/31 02:26:31;;;;;;;14.52;10.25;;;15.30;99.90;;;;;;4190984;28;20028;-78
2021/07/31 02:28:31;;;;;;;19.50;10.43;;;15.30;99.90;;;;;;4193076;28;20039;-79
2021/07/31 02:30:32;;;;;;;17.23;9.13;;;15.40;99.90;;;;;;4192243;28;20040;-78
2021/07/31 02:32:34;;;;;;;18.33;10.52;;;15.50;99.90;;;;;;4210751;28;20387;-79
2021/07/31 02:34:34;;;;;;;18.75;11.10;;;15.40;99.90;;;;;;4193530;28;20488;-78
2021/07/31 02:36:35;;;;;;;14.05;9.10;;;15.40;99.90;;;;;;4213384;28;20024;-75
2021/07/31 02:38:37;;;;;;;21.25;10.07;;;15.40;99.90;;;;;;4185862;28;20036;-78
2021/07/31 02:40:37;;;;;;;18.15;9.98;;;15.50;99.90;;;;;;4191116;28;20022;-78
2021/07/31 02:42:38;;;;;;;19.15;9.32;;;15.60;99.90;;;;;;4207933;28;20054;-80
2021/07/31 02:44:39;;;;;;;19.27;9.68;;;15.40;99.90;;;;;;4210314;28;20103;-77
2021/07/31 02:46:44;;;;;;;20.52;11.07;;;15.40;99.90;;;;;;4190621;28;20047;-77
2021/07/31 02:48:44;;;;;;;20.48;11.43;;;15.30;99.90;;;;;;4211762;28;20067;-80
2021/07/31 02:50:45;;;;;;;21.10;12.10;;;15.30;99.90;;;;;;4209313;28;20043;-80
2021/07/31 02:52:46;;;;;;;21.75;10.57;;;15.40;99.90;;;;;;4176469;28;20044;-80
2021/07/31 02:54:46;;;;;;;21.85;11.40;;;15.20;99.90;;;;;;4190810;28;20067;-79
2021/07/31 02:56:48;;;;;;;25.55;11.93;;;15.20;99.90;;;;;;4193326;28;20029;-81
2021/07/31 02:58:50;;;;;;;27.65;12.65;;;15.00;99.90;;;;;;4191376;28;20139;-80
2021/07/31 03:00:51;;;;;;;21.90;13.48;;;15.00;99.90;;;;;;4210928;28;20107;-82
2021/07/31 03:02:51;;;;;;;19.02;12.18;;;14.90;99.90;;;;;;4209457;28;20521;-81
2021/07/31 03:04:52;;;;;;;25.83;10.30;;;14.90;99.90;;;;;;4211990;28;20021;-80
2021/07/31 03:06:52;;;;;;;24.35;11.10;;;15.00;99.90;;;;;;4203104;28;20036;-82
2021/07/31 03:08:53;;;;;;;20.92;11.52;;;15.00;99.90;;;;;;4210741;28;20040;-80
2021/07/31 03:11:02;;;;;;;16.08;8.65;;;14.90;99.90;;;;;;4193157;28;20045;-81
2021/07/31 03:13:02;;;;;;;22.73;11.60;;;14.80;99.90;;;;;;4193518;28;20170;-79
2021/07/31 03:15:03;;;;;;;18.23;9.15;;;14.80;99.90;;;;;;4194641;28;20068;-76
2021/07/31 03:17:04;;;;;;;23.05;11.02;;;14.70;99.90;;;;;;4215482;28;20028;-81
2021/07/31 03:19:05;;;;;;;18.48;11.32;;;14.70;99.90;;;;;;4213842;28;20028;-80
2021/07/31 03:21:06;;;;;;;18.17;10.05;;;14.70;99.90;;;;;;4213563;28;20085;-81
2021/07/31 03:23:06;;;;;;;26.02;11.82;;;14.70;99.90;;;;;;4214009;28;20123;-81
2021/07/31 03:25:07;;;;;;;18.80;9.40;;;14.60;99.90;;;;;;4210507;28;20089;-81
2021/07/31 03:27:08;;;;;;;17.63;8.80;;;14.70;99.90;;;;;;4215454;28;20064;-80
2021/07/31 03:29:08;;;;;;;13.57;9.25;;;14.60;99.90;;;;;;4205537;28;20745;-81
2021/07/31 03:31:20;;;;;;;16.65;8.30;;;14.60;99.90;;;;;;4196310;28;20048;-82
2021/07/31 03:33:21;;;;;;;13.27;7.57;;;14.70;99.90;;;;;;4212804;28;20040;-81
2021/07/31 03:35:22;;;;;;;18.42;9.05;;;14.60;99.90;;;;;;4215963;28;20040;-80
2021/07/31 03:37:23;;;;;;;19.20;10.40;;;14.60;99.90;;;;;;4193067;28;20029;-81
2021/07/31 03:39:25;;;;;;;25.92;10.82;;;14.60;99.90;;;;;;4215140;28;20036;-81
2021/07/31 03:41:27;;;;;;;19.27;11.47;;;14.60;99.90;;;;;;4212499;28;20394;-80
2021/07/31 03:43:28;;;;;;;18.33;11.40;;;14.60;99.90;;;;;;4189064;28;20032;-81
2021/07/31 03:45:30;;;;;;;17.42;11.43;;;14.60;99.90;;;;;;4195624;28;20103;-82
2021/07/31 03:47:31;;;;;;;18.23;9.70;;;14.60;99.90;;;;;;4196338;28;20032;-80
2021/07/31 03:49:32;;;;;;;18.58;10.95;;;14.70;99.90;;;;;;4194038;28;20033;-81
2021/07/31 03:51:33;;;;;;;17.70;11.30;;;14.70;99.90;;;;;;4213833;28;20036;-81
2021/07/31 03:53:34;;;;;;;21.60;12.55;;;14.70;99.90;;;;;;4213313;28;20039;-83
2021/07/31 03:55:35;;;;;;;20.25;11.45;;;14.60;99.90;;;;;;4195868;28;20113;-81
2021/07/31 03:57:43;;;;;;;21.73;11.55;;;14.60;99.90;;;;;;4193121;28;20063;-81
2021/07/31 03:59:43;;;;;;;26.08;11.70;;;14.70;99.90;;;;;;4215291;28;20479;-81
2021/07/31 04:01:44;;;;;;;21.00;10.57;;;14.70;99.90;;;;;;4195713;28;20029;-83
2021/07/31 04:03:45;;;;;;;26.48;10.77;;;14.70;99.90;;;;;;4215346;28;20043;-81
2021/07/31 04:05:45;;;;;;;25.60;13.40;;;14.80;99.90;;;;;;4198485;28;20031;-82
2021/07/31 04:07:49;;;;;;;18.67;10.13;;;14.80;99.90;;;;;;4213031;28;20047;-82
2021/07/31 04:09:50;;;;;;;18.50;10.85;;;14.90;99.90;;;;;;4198071;28;20040;-83
2021/07/31 04:11:51;;;;;;;19.67;11.10;;;14.90;99.90;;;;;;4197740;28;20021;-84
2021/07/31 04:13:54;;;;;;;21.88;11.43;;;14.90;99.90;;;;;;4195842;28;20031;-83
2021/07/31 04:15:55;;;;;;;18.90;11.07;;;14.90;99.90;;;;;;4214756;28;20039;-83
2021/07/31 04:17:55;;;;;;;19.35;10.05;;;15.00;99.90;;;;;;4215493;28;20059;-82
2021/07/31 04:19:57;;;;;;;15.48;10.52;;;14.90;99.90;;;;;;4216123;28;20444;-82
2021/07/31 04:21:57;;;;;;;15.13;11.27;;;14.90;99.90;;;;;;4214019;28;20631;-82
2021/07/31 04:24:01;;;;;;;16.40;11.15;;;14.90;99.90;;;;;;4213571;28;20036;-82
2021/07/31 04:26:11;;;;;;;14.27;8.80;;;15.00;99.90;;;;;;4211100;28;20032;-79
2021/07/31 04:28:13;;;;;;;21.52;11.88;;;15.00;99.90;;;;;;4213538;28;20028;-81
2021/07/31 04:30:13;;;;;;;18.23;10.55;;;15.00;99.90;;;;;;4196949;28;20051;-80
2021/07/31 04:32:15;;;;;;;17.70;10.15;;;15.10;99.90;;;;;;4209186;28;20069;-81
2021/07/31 04:34:19;;;;;;;17.67;11.05;;;15.10;99.90;;;;;;4212622;28;20031;-81
2021/07/31 04:36:20;;;;;;;18.13;11.00;;;15.10;99.90;;;;;;4211603;28;20119;-80
2021/07/31 04:38:20;;;;;;;19.42;11.48;;;15.10;99.90;;;;;;4210935;28;20025;-81
2021/07/31 04:40:21;;;;;;;20.83;12.15;;;15.10;99.90;;;;;;4194496;28;20438;-81
2021/07/31 04:42:22;;;;;;;18.52;10.60;;;15.10;99.90;;;;;;4210815;28;20029;-80
2021/07/31 04:44:22;;;;;;;19.00;11.10;;;15.10;99.90;;;;;;4210344;28;20031;-81
2021/07/31 04:46:23;;;;;;;20.92;12.48;;;15.10;99.90;;;;;;4194011;28;20133;-81
2021/07/31 04:48:24;;;;;;;15.18;10.15;;;15.10;99.90;;;;;;4194704;28;20028;-81
2021/07/31 04:50:24;;;;;;;20.83;12.65;;;15.10;99.90;;;;;;4210377;28;20024;-82
2021/07/31 04:52:27;;;;;;;19.55;11.23;;;15.10;99.90;;;;;;4210901;28;20027;-82
2021/07/31 04:54:30;;;;;;;22.70;11.90;;;15.20;99.90;;;;;;4196926;28;20024;-82
2021/07/31 04:56:30;;;;;;;20.83;11.30;;;15.20;99.90;;;;;;4195272;28;20036;-81
2021/07/31 04:58:36;;;;;;;17.95;10.07;;;15.20;99.90;;;;;;4213769;28;20112;-81
2021/07/31 05:00:37;;;;;;;16.23;10.65;;;15.30;99.90;;;;;;4183427;28;20352;-80
2021/07/31 05:02:38;;;;;;;17.60;11.30;;;15.30;99.90;;;;;;4210237;28;20048;-82
2021/07/31 05:04:38;;;;;;;21.40;11.05;;;15.20;99.90;;;;;;4195409;28;20033;-81
2021/07/31 05:06:41;;;;;;;21.50;10.68;;;15.20;99.90;;;;;;4210070;28;20431;-82
2021/07/31 05:08:48;;;;;;;18.73;11.23;;;15.20;99.90;;;;;;4190134;28;20040;-84
2021/07/31 05:10:51;;;;;;;18.45;11.77;;;15.10;99.90;;;;;;4196545;28;20495;-82
2021/07/31 05:12:53;;;;;;;17.63;9.23;;;15.20;99.90;;;;;;4214604;28;20028;-83
2021/07/31 05:15:00;;;;;;;24.70;12.63;;;15.10;99.90;;;;;;4195681;28;20483;-83
2021/07/31 05:17:01;;;;;;;18.98;11.40;;;15.10;99.90;;;;;;4213985;28;20475;-81
2021/07/31 05:19:02;;;;;;;23.50;12.02;;;15.10;99.90;;;;;;4215252;28;20023;-82
2021/07/31 05:21:07;;;;;;;20.20;12.07;;;15.10;99.90;;;;;;4211876;28;20047;-83
2021/07/31 05:23:08;;;;;;;19.13;11.20;;;15.20;99.90;;;;;;4196636;28;20208;-85
2021/07/31 05:25:16;;;;;;;14.40;10.60;;;15.30;99.90;;;;;;4212742;28;20523;-84
2021/07/31 05:27:27;;;;;;;22.70;9.82;;;15.40;99.90;;;;;;4203699;28;20115;-81
2021/07/31 05:29:27;;;;;;;17.90;10.85;;;15.50;99.90;;;;;;4214203;28;20028;-84
2021/07/31 05:31:46;;;;;;;12.55;8.02;;;15.50;99.90;;;;;;4193078;28;20044;-87
2021/07/31 05:33:54;;;;;;;20.27;9.70;;;15.50;99.90;;;;;;4194501;28;20036;-85
2021/07/31 05:35:55;;;;;;;19.63;10.00;;;15.50;99.90;;;;;;4201503;28;20036;-86
2021/07/31 05:37:57;;;;;;;17.48;10.82;;;15.50;99.90;;;;;;4195316;28;20033;-86
2021/07/31 05:40:03;;;;;;;25.48;10.93;;;15.50;99.90;;;;;;4206085;28;20474;-87
2021/07/31 05:42:05;;;;;;;12.57;9.20;;;15.50;99.90;;;;;;4209268;28;20028;-85
2021/07/31 05:44:06;;;;;;;14.02;9.38;;;15.60;99.90;;;;;;4210680;28;20115;-85
2021/07/31 05:46:08;;;;;;;17.85;10.48;;;15.60;99.90;;;;;;4210141;28;20031;-86
2021/07/31 05:48:10;;;;;;;25.65;10.35;;;15.60;99.90;;;;;;4213023;28;20375;-87
2021/07/31 05:50:12;;;;;;;17.75;9.77;;;15.60;99.90;;;;;;4195615;28;20526;-85
2021/07/31 05:52:14;;;;;;;18.02;8.13;;;15.50;99.90;;;;;;4195725;28;20031;-85
2021/07/31 05:54:16;;;;;;;20.25;10.75;;;15.60;99.90;;;;;;4197805;28;20037;-87
2021/07/31 05:56:16;;;;;;;14.50;10.10;;;15.60;99.90;;;;;;4192953;28;20025;-85
2021/07/31 05:58:19;;;;;;;19.02;9.98;;;15.60;99.90;;;;;;4214034;28;20020;-84
2021/07/31 06:00:30;;;;;;;12.85;10.43;;;15.60;99.90;;;;;;4211980;28;20036;-88
2021/07/31 06:02:33;;;;;;;18.77;8.70;;;15.60;99.90;;;;;;4196629;28;20119;-86
2021/07/31 06:04:34;;;;;;;14.65;7.45;;;15.60;99.90;;;;;;4197002;28;20527;-85
2021/07/31 06:06:50;;;;;;;12.52;8.30;;;15.70;99.90;;;;;;4195105;28;20024;-87
2021/07/31 06:08:55;;;;;;;13.95;8.68;;;15.70;99.90;;;;;;4213855;28;20028;-86
2021/07/31 06:11:09;;;;;;;12.65;7.70;;;15.70;99.90;;;;;;4182833;28;20025;-87
2021/07/31 06:13:26;;;;;;;12.73;7.88;;;15.80;99.90;;;;;;4190970;28;20114;-85
2021/07/31 06:15:27;;;;;;;17.63;8.38;;;15.70;99.90;;;;;;4213223;28;20035;-86
2021/07/31 06:17:34;;;;;;;13.35;8.70;;;15.60;99.90;;;;;;4193632;28;20039;-86
2021/07/31 06:19:35;;;;;;;13.98;8.57;;;15.60;99.90;;;;;;4201975;28;20040;-86
2021/07/31 06:21:36;;;;;;;15.20;7.65;;;15.60;99.90;;;;;;4193222;28;20025;-86
2021/07/31 06:23:39;;;;;;;16.52;8.80;;;15.60;99.90;;;;;;4193939;28;20948;-87
2021/07/31 06:25:47;;;;;;;;;;;15.60;99.90;;;;;;4196656;28;20033;-86
2021/07/31 06:27:48;;;;;;;14.13;8.73;;;15.70;99.90;;;;;;4188987;28;19927;-85
2021/07/31 06:29:49;;;;;;;18.50;7.93;;;15.80;99.90;;;;;;4211958;28;20454;-85
2021/07/31 06:31:51;;;;;;;13.57;8.18;;;15.80;99.90;;;;;;4215188;28;20556;-84
2021/07/31 06:33:52;;;;;;;14.23;8.27;;;15.80;99.90;;;;;;4212862;28;20024;-81
2021/07/31 06:35:54;;;;;;;10.80;7.82;;;15.80;99.90;;;;;;4190513;28;20056;-83
2021/07/31 06:37:55;;;;;;;20.40;8.27;;;15.90;99.90;;;;;;4210770;28;20119;-83
2021/07/31 06:40:03;;;;;;;11.45;7.63;;;15.90;99.90;;;;;;4191661;28;20459;-84
2021/07/31 06:42:05;;;;;;;16.30;8.13;;;16.00;99.90;;;;;;4195707;28;20036;-85
2021/07/31 06:44:08;;;;;;;12.45;6.97;;;16.20;99.90;;;;;;4208428;28;20058;-84
2021/07/31 06:46:10;;;;;;;12.50;7.22;;;16.40;99.90;;;;;;4193989;28;20040;-84
2021/07/31 06:48:13;;;;;;;15.07;8.35;;;16.50;99.90;;;;;;4191234;28;20116;-84
2021/07/31 06:50:14;;;;;;;12.32;7.40;;;16.50;99.90;;;;;;4193839;28;20064;-85
2021/07/31 06:52:16;;;;;;;13.20;6.72;;;16.60;99.90;;;;;;4208282;28;20029;-85
2021/07/31 06:54:17;;;;;;;19.05;7.35;;;16.70;99.90;;;;;;4195097;28;20103;-85
2021/07/31 06:56:18;;;;;;;12.90;6.75;;;16.80;99.90;;;;;;4192607;28;20394;-84
2021/07/31 06:58:19;;;;;;;11.80;7.10;;;16.80;99.90;;;;;;4193510;28;20040;-85
2021/07/31 07:00:20;;;;;;;10.63;6.38;;;16.70;99.90;;;;;;4208443;28;20032;-84
2021/07/31 07:02:26;;;;;;;11.70;5.95;;;16.80;99.90;;;;;;4190829;28;20704;-83
2021/07/31 07:04:26;;;;;;;10.25;6.53;;;16.90;99.90;;;;;;4193495;28;20025;-84
2021/07/31 07:06:28;;;;;;;7.07;5.15;;;17.00;99.90;;;;;;4209393;28;20031;-83
2021/07/31 07:08:29;;;;;;;9.13;5.50;;;17.10;99.90;;;;;;4192711;28;20036;-84
2021/07/31 07:10:38;;;;;;;11.82;5.90;;;17.00;99.90;;;;;;4193365;28;20075;-84
2021/07/31 07:12:43;;;;;;;10.50;5.57;;;17.10;99.90;;;;;;4209575;28;20048;-84
2021/07/31 07:14:43;;;;;;;12.27;6.43;;;17.10;99.90;;;;;;4189888;28;20029;-84
2021/07/31 07:16:44;;;;;;;14.40;5.90;;;17.00;99.90;;;;;;4207155;28;20472;-84
2021/07/31 07:18:45;;;;;;;12.43;5.65;;;17.00;99.90;;;;;;4210918;28;20036;-84
2021/07/31 07:20:46;;;;;;;9.95;5.97;;;17.00;99.90;;;;;;4194648;28;20029;-84
2021/07/31 07:22:53;;;;;;;13.60;6.47;;;17.00;99.90;;;;;;4211933;28;20036;-84
2021/07/31 07:24:55;;;;;;;11.45;5.00;;;17.10;99.90;;;;;;4206113;28;20044;-84
2021/07/31 07:27:00;;;;;;;9.27;6.00;;;17.00;99.90;;;;;;4210489;28;20039;-84
2021/07/31 07:29:00;;;;;;;10.73;5.93;;;16.90;99.90;;;;;;4212420;28;20039;-83
2021/07/31 07:31:02;;;;;;;9.52;6.75;;;16.80;99.90;;;;;;4192117;28;20036;-83
2021/07/31 07:33:03;;;;;;;9.13;5.75;;;16.60;99.90;;;;;;4211645;28;20020;-85
2021/07/31 07:35:21;;;;;;;8.70;5.93;;;16.50;99.90;;;;;;4190270;28;20603;-83
2021/07/31 07:37:22;;;;;;;11.93;5.75;;;16.60;99.90;;;;;;4204315;28;20051;-83
2021/07/31 07:39:29;;;;;;;13.23;5.63;;;16.70;99.90;;;;;;4210371;28;20115;-84
2021/07/31 07:41:35;;;;;;;13.00;5.85;;;16.70;99.90;;;;;;4207952;28;20027;-84
2021/07/31 07:43:39;;;;;;;14.20;4.90;;;16.80;99.90;;;;;;4211144;28;20139;-83
2021/07/31 07:45:40;;;;;;;7.70;4.68;;;17.00;99.90;;;;;;4191531;28;20423;-83
2021/07/31 07:47:40;;;;;;;9.43;4.63;;;17.20;99.90;;;;;;4193157;28;20024;-84
2021/07/31 07:49:41;;;;;;;8.32;4.40;;;17.20;99.90;;;;;;4193886;28;20083;-84
2021/07/31 07:51:42;;;;;;;4.97;4.10;;;17.20;99.90;;;;;;4194783;28;20021;-81
2021/07/31 07:53:42;;;;;;;8.50;4.43;;;17.10;99.90;;;;;;4212067;28;20720;-82
2021/07/31 07:55:43;;;;;;;7.55;4.38;;;17.10;99.90;;;;;;4210592;28;20024;-82
2021/07/31 07:57:44;;;;;;;7.40;4.85;;;17.10;99.90;;;;;;4208885;28;20040;-82
2021/07/31 07:59:52;;;;;;;9.52;4.25;;;17.20;99.90;;;;;;4211981;28;20399;-86
2021/07/31 08:01:52;;;;;;;12.85;8.05;;;17.30;99.90;;;;;;4195800;28;20476;-83
2021/07/31 08:03:54;;;;;;;15.90;10.80;;;17.30;99.90;;;;;;4196627;28;20039;-81
2021/07/31 08:05:54;;;;;;;7.88;3.95;;;17.30;99.90;;;;;;4210627;28;20119;-81
2021/07/31 08:07:56;;;;;;;13.50;4.85;;;17.40;99.90;;;;;;4196901;28;20025;-82
2021/07/31 08:09:59;;;;;;;9.35;4.30;;;17.30;99.90;;;;;;4211880;28;20048;-85
2021/07/31 08:12:00;;;;;;;8.02;3.65;;;17.20;99.90;;;;;;4214428;28;20448;-83
2021/07/31 08:14:07;;;;;;;11.25;5.28;;;17.00;99.90;;;;;;4211926;28;20107;-85
2021/07/31 08:16:10;;;;;;;6.15;3.45;;;16.90;99.90;;;;;;4194229;28;20066;-83
2021/07/31 08:18:12;;;;;;;7.47;4.07;;;16.90;99.90;;;;;;4213257;28;20039;-83
2021/07/31 08:20:13;;;;;;;8.68;6.00;;;16.90;99.90;;;;;;4210651;28;20081;-85
2021/07/31 08:22:13;;;;;;;8.93;5.75;;;16.80;99.90;;;;;;4194608;28;20064;-88
2021/07/31 08:24:16;;;;;;;9.88;6.13;;;16.60;99.90;;;;;;4196265;28;20036;-86
2021/07/31 08:26:24;;;;;;;14.70;8.10;;;16.30;99.90;;;;;;4194862;28;20028;-88
2021/07/31 08:28:25;;;;;;;12.23;7.07;;;16.10;99.90;;;;;;4186979;28;20040;-82
2021/07/31 08:30:25;;;;;;;11.48;8.30;;;15.90;99.90;;;;;;4198043;28;20189;-83
2021/07/31 08:32:28;;;;;;;11.30;8.25;;;15.90;99.90;;;;;;4194101;28;20039;-83
2021/07/31 08:34:29;;;;;;;16.02;7.85;;;15.80;99.90;;;;;;4191487;28;20041;-83
2021/07/31 08:36:30;;;;;;;12.35;7.13;;;15.90;99.90;;;;;;4194349;28;20026;-84
2021/07/31 08:38:31;;;;;;;8.98;5.53;;;16.10;99.90;;;;;;4197418;28;20083;-82
2021/07/31 08:40:33;;;;;;;7.95;6.32;;;16.40;99.90;;;;;;4195361;28;20498;-83
2021/07/31 08:42:36;;;;;;;8.30;5.17;;;16.50;99.90;;;;;;4189452;28;20040;-84
2021/07/31 08:44:37;;;;;;;11.20;5.47;;;16.70;99.90;;;;;;4191523;28;20107;-82
2021/07/31 08:46:38;;;;;;;12.52;5.28;;;16.80;99.90;;;;;;4196106;28;20048;-84
2021/07/31 08:48:42;;;;;;;7.82;4.90;;;17.20;99.90;;;;;;4194850;28;20056;-82
2021/07/31 08:50:44;;;;;;;7.28;4.68;;;17.20;99.90;;;;;;4195488;28;20025;-82
2021/07/31 08:52:57;;;;;;;8.15;5.53;;;17.20;99.90;;;;;;4193158;28;20142;-83
2021/07/31 08:54:57;;;;;;;6.32;5.72;;;17.10;99.90;;;;;;4195137;28;20025;-83
2021/07/31 08:56:58;;;;;;;13.13;5.78;;;16.90;99.90;;;;;;4194412;28;20116;-81
2021/07/31 08:59:00;;;;;;;11.23;5.32;;;16.70;99.90;;;;;;4196171;28;20044;-81
2021/07/31 09:01:00;;;;;;;8.43;5.72;;;16.60;99.90;;;;;;4191673;28;20044;-82
2021/07/31 09:03:01;;;;;;;9.90;4.95;;;16.40;99.90;;;;;;4197965;28;20036;-84
2021/07/31 09:05:02;;;;;;;7.03;4.90;;;16.40;99.90;;;;;;4196292;28;20028;-83
2021/07/31 09:07:14;;;;;;;6.68;4.35;;;16.30;99.90;;;;;;4194589;28;20024;-85
2021/07/31 09:09:26;;;;;;;8.15;5.15;;;16.20;99.90;;;;;;4195736;28;20111;-82
2021/07/31 09:11:28;;;;;;;7.05;4.70;;;16.20;99.90;;;;;;4189832;28;20479;-83
2021/07/31 09:13:29;;;;;;;5.72;4.25;;;16.20;99.90;;;;;;4196013;28;20464;-81
2021/07/31 09:15:36;;;;;;;4.90;4.25;;;16.30;99.90;;;;;;4193820;28;20123;-83
2021/07/31 09:17:39;;;;;;;5.05;4.60;;;16.30;99.90;;;;;;4196983;28;20021;-84
2021/07/31 09:19:45;;;;;;;9.77;5.88;;;16.10;99.90;;;;;;4188695;28;20029;-83
2021/07/31 09:21:48;;;;;;;7.78;5.93;;;16.00;99.90;;;;;;4193553;28;20033;-84
2021/07/31 09:23:53;;;;;;;6.65;5.97;;;16.00;99.90;;;;;;4210453;28;20036;-83
2021/07/31 09:26:01;;;;;;;9.75;5.35;;;16.10;99.90;;;;;;4212469;28;20104;-85
2021/07/31 09:28:18;;;;;;;6.93;5.78;;;16.20;99.90;;;;;;4194486;28;20029;-86
2021/07/31 09:30:20;;;;;;;7.72;5.28;;;16.30;99.90;;;;;;4194178;28;20064;-84
2021/07/31 09:32:20;;;;;;;6.80;4.65;;;16.90;99.90;;;;;;4193159;28;20495;-83
2021/07/31 09:34:27;;;;;;;4.75;4.10;;;17.40;99.90;;;;;;4213445;28;20035;-83
2021/07/31 09:36:39;;;;;;;7.43;4.13;;;17.90;99.90;;;;;;4213160;28;20484;-85
2021/07/31 09:38:45;;;;;;;4.63;3.90;;;18.30;99.90;;;;;;4193856;28;20037;-82
2021/07/31 09:40:47;;;;;;;8.48;3.80;;;18.50;99.90;;;;;;4204123;28;20359;-86
2021/07/31 09:42:48;;;;;;;6.25;4.65;;;18.70;99.90;;;;;;4191478;28;20116;-82
2021/07/31 09:44:49;;;;;;;8.70;4.35;;;18.70;99.90;;;;;;4195415;28;20357;-82
2021/07/31 09:46:51;;;;;;;6.05;4.65;;;18.80;99.90;;;;;;4212821;28;20553;-81
2021/07/31 09:49:00;;;;;;;7.13;5.35;;;18.60;99.90;;;;;;4193207;28;20043;-80
2021/07/31 09:51:01;;;;;;;7.88;4.93;;;18.30;99.90;;;;;;4207389;28;20024;-82
2021/07/31 09:53:17;;;;;;;7.30;5.85;;;17.90;99.90;;;;;;4209164;28;20386;-86
2021/07/31 09:55:20;;;;;;;6.30;5.70;;;17.50;99.90;;;;;;4195556;28;20024;-84
2021/07/31 09:57:26;;;;;;;9.02;5.47;;;17.10;99.90;;;;;;4192829;28;20044;-87
2021/07/31 09:59:27;;;;;;;8.70;5.72;;;16.90;99.90;;;;;;4210803;28;20028;-83
2021/07/31 10:01:44;;;;;;;8.45;5.75;;;16.70;99.90;;;;;;4193595;28;20029;-88
2021/07/31 10:03:45;;;;;;;8.27;6.10;;;16.60;99.90;;;;;;4195141;28;20066;-78
2021/07/31 10:05:48;;;;;;;8.00;4.72;;;16.40;99.90;;;;;;4192212;28;20036;-84
2021/07/31 10:07:49;;;;;;;5.82;5.15;;;16.30;99.90;;;;;;4215029;28;20024;-82
2021/07/31 10:09:50;;;;;;;9.07;5.40;;;16.40;99.90;;;;;;4194740;28;20056;-84
2021/07/31 10:11:50;;;;;;;6.72;4.78;;;16.40;99.90;;;;;;4195786;28;20025;-83
2021/07/31 10:13:58;;;;;;;11.30;6.00;;;16.50;99.90;;;;;;4212235;28;20410;-82
2021/07/31 10:16:01;;;;;;;7.35;5.88;;;16.60;99.90;;;;;;4193604;28;20483;-84
2021/07/31 10:18:11;;;;;;;8.40;6.47;;;16.80;99.90;;;;;;4194951;28;20550;-82
2021/07/31 10:20:23;;;;;;;15.63;6.20;;;16.90;99.90;;;;;;4190117;28;20484;-82
2021/07/31 10:22:43;;;;;;;9.10;6.13;;;16.80;99.90;;;;;;4192875;28;20477;-83
2021/07/31 10:25:05;;;;;;;8.93;6.68;;;16.70;99.90;;;;;;4191712;28;20029;-81
2021/07/31 10:27:22;;;;;;;12.18;8.52;;;16.60;99.90;;;;;;4194894;28;20487;-81
2021/07/31 10:29:29;;;;;;;8.85;7.68;;;16.80;99.90;;;;;;4195980;28;20177;-83